createdAt,value
2023-01-30T00:01:20.040Z,98228.59
2023-01-30T00:03:47.836Z,98213.66
2023-01-30T00:06:16.152Z,98212.94
2023-01-30T00:08:44.458Z,98214.91
2023-01-30T00:11:15.359Z,98215.72
2023-01-30T00:13:43.796Z,98208.69
2023-01-30T00:16:11.968Z,98215.72
2023-01-30T00:18:41.001Z,98210.69
2023-01-30T00:21:12.702Z,98209.00
2023-01-30T00:23:40.765Z,98210.69
2023-01-30T00:26:09.738Z,98200.28
2023-01-30T00:28:39.735Z,98186.16
2023-01-30T00:31:07.794Z,98180.06
2023-01-30T00:33:37.522Z,98184.50
2023-01-30T00:36:05.667Z,98190.69
2023-01-30T00:38:33.401Z,98196.97
2023-01-30T00:41:01.112Z,98199.78
2023-01-30T00:43:46.972Z,98209.88
2023-01-30T00:46:50.295Z,98214.84
2023-01-30T00:49:18.356Z,98229.56
2023-01-30T00:51:46.136Z,98249.66
2023-01-30T00:54:14.221Z,98258.56
2023-01-30T00:56:41.715Z,98267.13
2023-01-30T00:59:09.227Z,98279.78
2023-01-30T01:01:37.810Z,98271.91
2023-01-30T01:04:07.507Z,98259.50
2023-01-30T01:06:35.181Z,98271.16
2023-01-30T01:09:03.940Z,98269.28
2023-01-30T01:11:31.604Z,98265.06
2023-01-30T01:14:01.670Z,98270.69
2023-01-30T01:16:31.931Z,98274.81
2023-01-30T01:19:00.406Z,98264.09
2023-01-30T01:21:28.010Z,98262.34
2023-01-30T01:23:59.440Z,98273.41
2023-01-30T01:26:27.567Z,98273.03
2023-01-30T01:28:59.165Z,98262.06
2023-01-30T01:31:26.965Z,98253.03
2023-01-30T01:33:57.086Z,98268.72
2023-01-30T01:36:52.270Z,98271.44
2023-01-30T01:39:13.922Z,98262.31
2023-01-30T01:41:42.717Z,98259.22
2023-01-30T01:44:13.562Z,98265.81
2023-01-30T01:46:57.398Z,98257.25
2023-01-30T01:49:36.735Z,98240.09
2023-01-30T01:52:13.150Z,98238.03
2023-01-30T01:54:59.220Z,98253.69
2023-01-30T01:57:35.052Z,98261.00
2023-01-30T02:00:12.563Z,98248.75
2023-01-30T02:02:52.570Z,98248.19
2023-01-30T02:05:21.013Z,98238.31
2023-01-30T02:08:08.135Z,98243.19
2023-01-30T02:11:32.248Z,98220.97
2023-01-30T02:14:02.243Z,98218.44
2023-01-30T02:16:29.747Z,98218.25
2023-01-30T02:18:57.334Z,98221.50
2023-01-30T02:21:47.522Z,98208.19
2023-01-30T02:25:18.792Z,98212.25
2023-01-30T02:28:29.600Z,98223.38
2023-01-30T02:31:32.763Z,98199.28
2023-01-30T02:34:53.161Z,98160.94
2023-01-30T02:38:09.265Z,98146.84
2023-01-30T02:41:00.786Z,98163.81
2023-01-30T02:44:01.239Z,98156.63
2023-01-30T02:46:51.244Z,98154.38
2023-01-30T02:49:36.679Z,98154.16
2023-01-30T02:52:11.405Z,98162.22
2023-01-30T02:54:38.947Z,98178.47
2023-01-30T02:57:36.529Z,98169.63
2023-01-30T03:00:06.177Z,98156.16
2023-01-30T03:03:12.821Z,98133.34
2023-01-30T03:06:06.046Z,98114.56
2023-01-30T03:09:12.369Z,98103.00
2023-01-30T03:12:03.080Z,98091.03
2023-01-30T03:14:49.524Z,98077.78
2023-01-30T03:17:21.082Z,98073.09
2023-01-30T03:19:48.951Z,98052.97
2023-01-30T03:22:17.334Z,98048.28
2023-01-30T03:24:45.075Z,98036.59
2023-01-30T03:27:13.423Z,98020.31
2023-01-30T03:29:41.084Z,98034.19
2023-01-30T03:32:08.669Z,98045.34
2023-01-30T03:34:36.214Z,98063.66
2023-01-30T03:37:05.599Z,98072.47
2023-01-30T03:39:36.583Z,98075.94
2023-01-30T03:42:06.335Z,98066.06
2023-01-30T03:44:33.922Z,98066.81
2023-01-30T03:47:01.927Z,98074.91
2023-01-30T03:49:29.449Z,98074.69
2023-01-30T03:51:58.284Z,98077.22
2023-01-30T03:54:25.872Z,98067.34
2023-01-30T03:56:55.353Z,98068.50
2023-01-30T03:59:23.747Z,98076.06
2023-01-30T04:01:59.060Z,98075.88
2023-01-30T04:04:26.593Z,98082.06
2023-01-30T04:06:54.277Z,98086.69
2023-01-30T04:09:22.097Z,98072.59
2023-01-30T04:11:52.647Z,98083.16
2023-01-30T04:14:20.518Z,98083.66
2023-01-30T04:17:06.469Z,98071.03
2023-01-30T04:19:49.008Z,98081.56
2023-01-30T04:22:16.563Z,98067.34
2023-01-30T04:24:44.325Z,98079.25
2023-01-30T04:27:12.033Z,98076.53
2023-01-30T04:29:51.528Z,98075.25
2023-01-30T04:32:19.854Z,98060.41
2023-01-30T04:34:47.424Z,98054.41
2023-01-30T04:37:14.968Z,98053.97
2023-01-30T04:39:43.389Z,98059.03
2023-01-30T04:42:11.235Z,98076.28
2023-01-30T04:44:48.862Z,98083.13
2023-01-30T04:47:19.863Z,98083.66
2023-01-30T04:49:47.408Z,98087.03
2023-01-30T04:52:16.537Z,98078.06
2023-01-30T04:54:44.143Z,98078.50
2023-01-30T04:57:11.673Z,98073.84
2023-01-30T04:59:39.294Z,98068.34
2023-01-30T05:02:10.547Z,98064.06
2023-01-30T05:04:38.132Z,98063.22
2023-01-30T05:07:05.644Z,98046.44
2023-01-30T05:09:33.172Z,98046.44
2023-01-30T05:12:00.692Z,98042.16
2023-01-30T05:14:28.187Z,98038.44
2023-01-30T05:16:55.733Z,98027.91
2023-01-30T05:19:23.286Z,98035.09
2023-01-30T05:21:50.791Z,98036.44
2023-01-30T05:24:18.277Z,98035.38
2023-01-30T05:26:45.813Z,98036.09
2023-01-30T05:29:13.414Z,98028.63
2023-01-30T05:31:40.927Z,98022.19
2023-01-30T05:34:12.629Z,98025.84
2023-01-30T05:36:40.133Z,98030.06
2023-01-30T05:39:07.634Z,98041.25
2023-01-30T05:41:35.124Z,98032.47
2023-01-30T05:44:02.644Z,98035.97
2023-01-30T05:46:30.209Z,98025.44
2023-01-30T05:48:57.829Z,98019.91
2023-01-30T05:51:26.997Z,98021.38
2023-01-30T05:53:54.528Z,98025.59
2023-01-30T05:56:23.600Z,98015.06
2023-01-30T05:58:56.361Z,98025.47
2023-01-30T06:01:24.703Z,98010.63
2023-01-30T06:03:53.116Z,98006.19
2023-01-30T06:06:21.651Z,98001.28
2023-01-30T06:08:52.949Z,97993.22
2023-01-30T06:11:20.531Z,97994.09
2023-01-30T06:13:48.187Z,97975.03
2023-01-30T06:16:18.359Z,97975.38
2023-01-30T06:18:47.150Z,97986.84
2023-01-30T06:21:15.831Z,97994.75
2023-01-30T06:23:43.700Z,97998.00
2023-01-30T06:26:11.485Z,97999.56
2023-01-30T06:28:39.126Z,97998.50
2023-01-30T06:31:08.460Z,97990.59
2023-01-30T06:33:36.177Z,97992.19
2023-01-30T06:36:03.950Z,97988.47
2023-01-30T06:38:31.733Z,97982.25
2023-01-30T06:40:59.484Z,97999.53
2023-01-30T06:43:27.125Z,98005.53
2023-01-30T06:45:54.652Z,98002.28
2023-01-30T06:48:22.304Z,97990.53
2023-01-30T06:50:49.811Z,97994.75
2023-01-30T06:53:17.313Z,97982.19
2023-01-30T06:55:44.888Z,97987.34
2023-01-30T06:58:14.783Z,97979.78
2023-01-30T07:00:43.467Z,97976.53
2023-01-30T07:03:16.621Z,97986.63
2023-01-30T07:05:46.510Z,97984.72
2023-01-30T07:08:15.715Z,97983.78
2023-01-30T07:10:44.576Z,98000.53
2023-01-30T07:13:12.683Z,98014.31
2023-01-30T07:15:40.258Z,98016.22
2023-01-30T07:18:08.109Z,98028.78
2023-01-30T07:20:35.626Z,98034.06
2023-01-30T07:23:03.341Z,98034.50
2023-01-30T07:25:31.114Z,98033.34
2023-01-30T07:28:02.194Z,98053.91
2023-01-30T07:30:32.589Z,98039.97
2023-01-30T07:33:00.863Z,98022.59
2023-01-30T07:35:34.784Z,98035.47
2023-01-30T07:38:02.370Z,98034.19
2023-01-30T07:40:29.937Z,98040.19
2023-01-30T07:43:11.451Z,98043.84
2023-01-30T07:45:48.686Z,98060.41
2023-01-30T07:48:19.070Z,98067.03
2023-01-30T07:50:46.910Z,98056.16
2023-01-30T07:53:18.645Z,98052.22
2023-01-30T07:55:46.214Z,98040.69
2023-01-30T07:58:15.455Z,98024.66
2023-01-30T08:00:44.049Z,98021.66
2023-01-30T08:03:16.797Z,98015.31
2023-01-30T08:05:46.942Z,98028.38
2023-01-30T08:08:14.933Z,98045.09
2023-01-30T08:10:43.245Z,98058.28
2023-01-30T08:13:10.756Z,98061.63
2023-01-30T08:15:38.287Z,98056.09
2023-01-30T08:18:08.905Z,98020.41
2023-01-30T08:20:36.966Z,98003.59
2023-01-30T08:23:04.972Z,97991.97
2023-01-30T08:25:32.570Z,97981.53
2023-01-30T08:28:00.437Z,97972.66
2023-01-30T08:30:28.855Z,97976.75
2023-01-30T08:32:57.806Z,97956.47
2023-01-30T08:35:25.335Z,97971.84
2023-01-30T08:37:52.876Z,97981.31
2023-01-30T08:40:20.860Z,97991.53
2023-01-30T08:42:48.497Z,97991.75
2023-01-30T08:45:16.075Z,97991.66
2023-01-30T08:47:43.574Z,97983.34
2023-01-30T08:50:11.528Z,97991.66
2023-01-30T08:52:39.021Z,97988.53
2023-01-30T08:55:06.993Z,97985.41
2023-01-30T08:57:34.552Z,97978.69
2023-01-30T09:00:02.968Z,97951.91
2023-01-30T09:02:30.757Z,97941.09
2023-01-30T09:04:58.365Z,97938.91
2023-01-30T09:07:28.286Z,97941.19
2023-01-30T09:09:55.952Z,97936.63
2023-01-30T09:12:23.683Z,97945.00
2023-01-30T09:14:55.510Z,97939.72
2023-01-30T09:17:23.125Z,97950.16
2023-01-30T09:19:50.676Z,97946.69
2023-01-30T09:22:18.243Z,97955.22
2023-01-30T09:24:45.758Z,97959.53
2023-01-30T09:27:13.269Z,97954.84
2023-01-30T09:29:40.804Z,97960.50
2023-01-30T09:32:08.352Z,97954.22
2023-01-30T09:34:35.872Z,97960.13
2023-01-30T09:37:05.162Z,97951.09
2023-01-30T09:39:32.787Z,97944.03
2023-01-30T09:42:30.574Z,97945.81
2023-01-30T09:45:32.150Z,97945.69
2023-01-30T09:48:18.320Z,97929.75
2023-01-30T09:50:55.918Z,97929.63
2023-01-30T09:53:59.107Z,97930.47
2023-01-30T09:56:27.748Z,97909.91
2023-01-30T09:58:59.316Z,97904.09
2023-01-30T10:01:58.682Z,97894.25
2023-01-30T10:04:59.990Z,97904.91
2023-01-30T10:07:47.294Z,97899.09
2023-01-30T10:10:34.981Z,97897.75
2023-01-30T10:13:15.808Z,97892.78
2023-01-30T10:16:13.048Z,97890.22
2023-01-30T10:19:07.382Z,97894.03
2023-01-30T10:21:55.393Z,97886.00
2023-01-30T10:24:48.241Z,97906.78
2023-01-30T10:27:18.063Z,97882.00
2023-01-30T10:29:52.883Z,97872.53
2023-01-30T10:32:41.959Z,97890.09
2023-01-30T10:35:42.162Z,97870.34
2023-01-30T10:38:26.962Z,97857.69
2023-01-30T10:41:28.147Z,97856.09
2023-01-30T10:44:14.094Z,97849.13
2023-01-30T10:46:56.793Z,97850.84
2023-01-30T10:49:52.334Z,97847.31
2023-01-30T10:52:44.745Z,97834.31
2023-01-30T10:55:39.639Z,97876.78
2023-01-30T10:58:47.834Z,97850.41
2023-01-30T11:01:30.305Z,97842.31
2023-01-30T11:04:04.492Z,97851.59
2023-01-30T11:06:34.770Z,97863.69
2023-01-30T11:09:03.931Z,97859.75
2023-01-30T11:11:43.290Z,97858.34
2023-01-30T11:14:12.627Z,97853.25
2023-01-30T11:16:53.871Z,97864.06
2023-01-30T11:19:32.880Z,97853.47
2023-01-30T11:22:06.171Z,97851.13
2023-01-30T11:24:42.983Z,97839.66
2023-01-30T11:27:28.678Z,97847.88
2023-01-30T11:30:20.834Z,97860.53
2023-01-30T11:32:50.556Z,97851.69
2023-01-30T11:35:29.541Z,97853.59
2023-01-30T11:38:28.176Z,97857.53
2023-01-30T11:41:09.483Z,97875.00
2023-01-30T11:43:39.876Z,97876.34
2023-01-30T11:46:16.133Z,97858.13
2023-01-30T11:49:04.180Z,97871.44
2023-01-30T11:51:51.903Z,97880.53
2023-01-30T11:54:31.014Z,97863.88
2023-01-30T11:57:01.790Z,97857.19
2023-01-30T11:59:50.830Z,97849.19
2023-01-30T12:02:38.072Z,97839.38
2023-01-30T12:05:36.709Z,97855.88
2023-01-30T12:08:40.582Z,97866.84
2023-01-30T12:11:28.301Z,97862.78
2023-01-30T12:14:26.243Z,97866.13
2023-01-30T12:17:19.530Z,97843.44
2023-01-30T12:20:45.573Z,97842.91
2023-01-30T12:23:36.639Z,97850.91
2023-01-30T12:26:33.827Z,97847.41
2023-01-30T12:29:30.781Z,97857.53
2023-01-30T12:32:19.334Z,97859.84
2023-01-30T12:34:48.265Z,97848.41
2023-01-30T12:37:45.061Z,97842.22
2023-01-30T12:40:36.630Z,97854.16
2023-01-30T12:43:45.256Z,97851.41
2023-01-30T12:46:47.967Z,97867.00
2023-01-30T12:49:50.219Z,97885.88
2023-01-30T12:52:29.178Z,97880.28
2023-01-30T12:55:35.813Z,97888.56
2023-01-30T12:58:38.829Z,97896.19
2023-01-30T13:01:31.576Z,97901.72
2023-01-30T13:04:56.741Z,97883.41
2023-01-30T13:07:57.100Z,97877.59
2023-01-30T13:10:47.160Z,97875.44
2023-01-30T13:13:42.924Z,97857.50
2023-01-30T13:16:31.050Z,97877.16
2023-01-30T13:19:51.269Z,97905.44
2023-01-30T13:22:48.828Z,97880.66
2023-01-30T13:25:46.353Z,97885.81
2023-01-30T13:28:21.659Z,97900.22
2023-01-30T13:30:52.204Z,97905.00
2023-01-30T13:33:37.971Z,97911.34
2023-01-30T13:36:26.142Z,97923.50
2023-01-30T13:39:32.887Z,97934.13
2023-01-30T13:42:02.912Z,97941.47
2023-01-30T13:44:35.788Z,97957.34
2023-01-30T13:47:21.782Z,97944.28
2023-01-30T13:50:26.793Z,97949.22
2023-01-30T13:53:18.649Z,97953.63
2023-01-30T13:56:01.974Z,97974.44
2023-01-30T13:58:53.715Z,97966.53
2023-01-30T14:01:23.042Z,97962.97
2023-01-30T14:03:50.666Z,97976.56
2023-01-30T14:06:38.812Z,97981.56
2023-01-30T14:09:24.127Z,97979.56
2023-01-30T14:12:00.458Z,97972.53
2023-01-30T14:14:40.567Z,97989.78
2023-01-30T14:17:12.818Z,97979.13
2023-01-30T14:20:21.300Z,97962.66
2023-01-30T14:23:24.405Z,97965.53
2023-01-30T14:25:56.429Z,97975.00
2023-01-30T14:28:24.037Z,97954.00
2023-01-30T14:31:02.175Z,97960.41
2023-01-30T14:33:36.098Z,97975.44
2023-01-30T14:36:03.484Z,97979.44
2023-01-30T14:38:33.406Z,97977.03
2023-01-30T14:41:00.824Z,97984.22
2023-01-30T14:43:43.636Z,97973.72
2023-01-30T14:46:20.174Z,97975.91
2023-01-30T14:49:19.400Z,97985.34
2023-01-30T14:51:48.294Z,97999.94
2023-01-30T14:54:15.718Z,97998.16
2023-01-30T14:57:03.745Z,97997.44
2023-01-30T15:00:02.680Z,97999.88
2023-01-30T15:02:44.114Z,97999.44
2023-01-30T15:05:18.275Z,98011.19
2023-01-30T15:07:59.326Z,98019.38
2023-01-30T15:10:43.051Z,98019.84
2023-01-30T15:13:34.570Z,98022.00
2023-01-30T15:16:23.596Z,98025.03
2023-01-30T15:19:34.542Z,98007.13
2023-01-30T15:22:53.094Z,98020.81
2023-01-30T15:25:40.663Z,98012.03
2023-01-30T15:28:33.262Z,98029.19
2023-01-30T15:31:14.236Z,98032.31
2023-01-30T15:33:51.180Z,98023.91
2023-01-30T15:36:25.006Z,98018.41
2023-01-30T15:39:17.886Z,98022.00
2023-01-30T15:41:45.378Z,98027.50
2023-01-30T15:44:39.342Z,98038.44
2023-01-30T15:47:22.232Z,98034.00
2023-01-30T15:49:59.963Z,98032.34
2023-01-30T15:52:46.308Z,98037.97
2023-01-30T15:55:36.792Z,98045.19
2023-01-30T15:58:16.825Z,98053.69
2023-01-30T16:00:52.029Z,98044.22
2023-01-30T16:03:25.370Z,98036.16
2023-01-30T16:05:55.859Z,98049.38
2023-01-30T16:08:32.375Z,98052.97
2023-01-30T16:11:00.779Z,98060.91
2023-01-30T16:13:29.592Z,98051.66
2023-01-30T16:16:12.687Z,98056.34
2023-01-30T16:18:51.414Z,98065.13
2023-01-30T16:21:40.102Z,98069.53
2023-01-30T16:24:22.516Z,98084.69
2023-01-30T16:26:56.158Z,98084.31
2023-01-30T16:29:27.410Z,98078.44
2023-01-30T16:31:55.823Z,98098.06
2023-01-30T16:34:36.608Z,98086.97
2023-01-30T16:37:26.699Z,98091.91
2023-01-30T16:40:33.012Z,98106.31
2023-01-30T16:43:14.767Z,98111.63
2023-01-30T16:45:54.195Z,98115.09
2023-01-30T16:48:35.208Z,98106.31
2023-01-30T16:51:02.601Z,98115.56
2023-01-30T16:53:31.965Z,98117.47
2023-01-30T16:56:10.759Z,98129.13
2023-01-30T16:58:38.823Z,98134.75
2023-01-30T17:01:08.855Z,98130.94
2023-01-30T17:03:43.255Z,98133.19
2023-01-30T17:06:22.537Z,98142.00
2023-01-30T17:08:57.704Z,98131.78
2023-01-30T17:11:32.492Z,98138.88
2023-01-30T17:14:32.819Z,98121.72
2023-01-30T17:17:07.442Z,98137.59
2023-01-30T17:19:35.918Z,98159.56
2023-01-30T17:22:08.024Z,98160.34
2023-01-30T17:24:36.263Z,98182.44
2023-01-30T17:27:04.746Z,98179.72
2023-01-30T17:29:42.581Z,98178.63
2023-01-30T17:32:13.568Z,98211.66
2023-01-30T17:34:41.487Z,98195.41
2023-01-30T17:37:24.035Z,98197.78
2023-01-30T17:39:51.537Z,98208.34
2023-01-30T17:42:21.044Z,98212.88
2023-01-30T17:44:48.912Z,98194.50
2023-01-30T17:47:16.883Z,98207.50
2023-01-30T17:49:44.979Z,98207.91
2023-01-30T17:52:14.141Z,98198.66
2023-01-30T17:54:41.770Z,98214.00
2023-01-30T17:57:15.671Z,98207.25
2023-01-30T17:59:43.597Z,98216.69
2023-01-30T18:02:11.121Z,98210.13
2023-01-30T18:04:40.029Z,98210.69
2023-01-30T18:07:12.612Z,98215.78
2023-01-30T18:09:40.119Z,98235.06
2023-01-30T18:12:32.749Z,98218.41
2023-01-30T18:15:00.274Z,98222.00
2023-01-30T18:17:28.452Z,98225.69
2023-01-30T18:19:56.298Z,98215.84
2023-01-30T18:22:24.203Z,98210.88
2023-01-30T18:24:51.723Z,98215.13
2023-01-30T18:27:19.294Z,98221.44
2023-01-30T18:29:46.842Z,98227.53
2023-01-30T18:32:14.397Z,98241.31
2023-01-30T18:34:42.011Z,98249.94
2023-01-30T18:37:09.634Z,98260.69
2023-01-30T18:39:38.322Z,98259.00
2023-01-30T18:42:06.396Z,98271.13
2023-01-30T18:44:35.602Z,98277.34
2023-01-30T18:47:03.103Z,98280.97
2023-01-30T18:49:30.743Z,98288.63
2023-01-30T18:51:58.230Z,98286.91
2023-01-30T18:54:25.782Z,98301.88
2023-01-30T18:56:53.266Z,98293.22
2023-01-30T18:59:20.857Z,98300.56
2023-01-30T19:01:48.437Z,98308.41
2023-01-30T19:04:16.024Z,98295.34
2023-01-30T19:06:44.105Z,98302.72
2023-01-30T19:09:16.363Z,98310.28
2023-01-30T19:12:02.456Z,98306.81
2023-01-30T19:14:30.084Z,98315.72
2023-01-30T19:16:57.598Z,98318.94
2023-01-30T19:19:25.173Z,98334.31
2023-01-30T19:21:52.777Z,98330.81
2023-01-30T19:24:20.290Z,98338.94
2023-01-30T19:26:48.394Z,98337.56
2023-01-30T19:29:18.158Z,98329.25
2023-01-30T19:31:47.291Z,98323.78
2023-01-30T19:34:15.033Z,98324.31
2023-01-30T19:36:42.591Z,98314.91
2023-01-30T19:39:10.894Z,98318.69
2023-01-30T19:41:38.765Z,98323.66
2023-01-30T19:44:08.457Z,98326.41
2023-01-30T19:46:36.282Z,98336.22
2023-01-30T19:49:05.808Z,98352.31
2023-01-30T19:51:35.125Z,98349.47
2023-01-30T19:54:09.595Z,98350.63
2023-01-30T19:56:40.794Z,98346.25
2023-01-30T19:59:09.297Z,98359.97
2023-01-30T20:01:39.824Z,98361.66
2023-01-30T20:04:07.557Z,98371.50
2023-01-30T20:06:37.372Z,98376.09
2023-01-30T20:09:08.323Z,98378.84
2023-01-30T20:11:38.015Z,98376.44
2023-01-30T20:14:06.911Z,98367.97
2023-01-30T20:16:35.900Z,98378.75
2023-01-30T20:19:12.839Z,98383.88
2023-01-30T20:21:40.364Z,98381.63
2023-01-30T20:24:11.654Z,98385.22
2023-01-30T20:26:39.796Z,98396.56
2023-01-30T20:29:09.389Z,98387.63
2023-01-30T20:31:39.035Z,98392.72
2023-01-30T20:34:11.187Z,98380.44
2023-01-30T20:36:38.703Z,98387.06
2023-01-30T20:39:07.640Z,98396.41
2023-01-30T20:41:37.527Z,98398.31
2023-01-30T20:44:08.679Z,98396.06
2023-01-30T20:46:41.439Z,98404.97
2023-01-30T20:49:18.589Z,98402.06
2023-01-30T20:51:50.085Z,98392.97
2023-01-30T20:54:20.199Z,98401.97
2023-01-30T20:56:51.556Z,98403.91
2023-01-30T20:59:27.204Z,98400.63
2023-01-30T21:01:55.164Z,98412.06
2023-01-30T21:04:24.824Z,98408.22
2023-01-30T21:06:52.661Z,98402.63
2023-01-30T21:09:22.954Z,98416.56
2023-01-30T21:11:52.941Z,98416.78
2023-01-30T21:14:20.693Z,98430.06
2023-01-30T21:16:48.830Z,98426.03
2023-01-30T21:19:17.635Z,98419.50
2023-01-30T21:22:09.179Z,98425.47
2023-01-30T21:24:39.268Z,98428.34
2023-01-30T21:27:07.002Z,98432.59
2023-01-30T21:29:34.600Z,98439.84
2023-01-30T21:32:02.176Z,98446.19
2023-01-30T21:34:29.789Z,98457.09
2023-01-30T21:37:15.858Z,98451.72
2023-01-30T21:40:02.255Z,98446.91
2023-01-30T21:42:48.790Z,98454.84
2023-01-30T21:45:16.624Z,98456.81
2023-01-30T21:47:44.222Z,98451.41
2023-01-30T21:50:11.930Z,98460.91
2023-01-30T21:52:39.696Z,98465.00
2023-01-30T21:55:08.185Z,98462.72
2023-01-30T21:57:35.711Z,98491.34
2023-01-30T22:00:03.911Z,98472.47
2023-01-30T22:02:32.649Z,98478.34
2023-01-30T22:05:00.170Z,98468.94
2023-01-30T22:07:27.696Z,98474.84
2023-01-30T22:09:55.608Z,98477.28
2023-01-30T22:12:23.507Z,98470.81
2023-01-30T22:14:51.032Z,98469.84
2023-01-30T22:17:18.600Z,98464.44
2023-01-30T22:19:46.325Z,98458.66
2023-01-30T22:22:13.832Z,98458.72
2023-01-30T22:24:41.348Z,98486.88
2023-01-30T22:27:08.956Z,98479.06
2023-01-30T22:29:36.472Z,98484.50
2023-01-30T22:32:04.324Z,98483.56
2023-01-30T22:34:33.151Z,98477.19
2023-01-30T22:37:01.757Z,98474.69
2023-01-30T22:39:29.279Z,98473.66
2023-01-30T22:41:56.793Z,98472.00
2023-01-30T22:44:24.277Z,98472.47
2023-01-30T22:46:52.338Z,98479.06
2023-01-30T22:49:19.959Z,98478.19
2023-01-30T22:51:47.454Z,98476.31
2023-01-30T22:54:16.199Z,98487.28
2023-01-30T22:56:48.613Z,98478.84
2023-01-30T22:59:16.873Z,98487.16
2023-01-30T23:01:47.869Z,98481.88
2023-01-30T23:04:19.512Z,98491.97
2023-01-30T23:06:48.265Z,98489.44
2023-01-30T23:09:19.935Z,98499.31
2023-01-30T23:12:13.976Z,98478.06
2023-01-30T23:14:42.762Z,98488.84
2023-01-30T23:17:29.189Z,98490.41
2023-01-30T23:19:56.751Z,98484.91
2023-01-30T23:22:24.289Z,98491.28
2023-01-30T23:24:51.881Z,98481.75
2023-01-30T23:27:20.853Z,98485.69
2023-01-30T23:29:48.443Z,98489.94
2023-01-30T23:32:19.036Z,98490.56
2023-01-30T23:34:47.797Z,98494.75
2023-01-30T23:37:16.600Z,98491.03
2023-01-30T23:39:45.148Z,98485.53
2023-01-30T23:42:12.677Z,98489.31
2023-01-30T23:44:40.404Z,98482.13
2023-01-30T23:47:07.979Z,98485.25
2023-01-30T23:49:35.551Z,98491.69
2023-01-30T23:52:03.207Z,98491.34
2023-01-30T23:54:30.766Z,98492.28
2023-01-30T23:56:58.295Z,98486.78
2023-01-30T23:59:25.821Z,98475.22
